Madison, Minnesota
Current Conditions -  °F | °C
As of 12:14 PM on Tuesday 21 Oct 2014 (Local Time) from KDXX Reporting Station
Clear Clear  
Wind Chill: 64°   Ceiling: Unl
Heat Index: 64°   Visibility: 10mi
Dew Point: 43°   Wind: 18mph
Humidity: 45%   Direction: 140°SE
Pressure: 30.04"   Gusts: NA
Location:  45.01°N, 96.2°W
Report Text: KDXX 211714Z AUTO 14016KT 10SM CLR 18/06 A3004 RMK AO2
Loading
Personal Weather Stations






























Interactive Weather Map
Tropical Storm Tracking
New forecast layout! Learn more

10-Day Weather Forecast

Advertisements
Track Severe Weather on mobile